sensor_id;sensor_type;location;lat;lon;timestamp;P1;durP1;ratioP1;P2;durP2;ratioP2
48578;SDS011;34357;51.948;6.132;2023-02-12T00:02:16;34.25;;;21.02;;
48578;SDS011;34357;51.948;6.132;2023-02-12T00:04:42;32.28;;;22.27;;
48578;SDS011;34357;51.948;6.132;2023-02-12T00:07:08;35.47;;;22.80;;
48578;SDS011;34357;51.948;6.132;2023-02-12T00:09:35;34.22;;;23.73;;
48578;SDS011;34357;51.948;6.132;2023-02-12T00:12:00;32.72;;;22.73;;
48578;SDS011;34357;51.948;6.132;2023-02-12T00:14:26;36.15;;;22.63;;
48578;SDS011;34357;51.948;6.132;2023-02-12T00:16:52;36.88;;;23.33;;
48578;SDS011;34357;51.948;6.132;2023-02-12T00:19:18;34.42;;;23.83;;
48578;SDS011;34357;51.948;6.132;2023-02-12T00:21:44;36.95;;;24.08;;
48578;SDS011;34357;51.948;6.132;2023-02-12T00:24:09;40.17;;;23.88;;
48578;SDS011;34357;51.948;6.132;2023-02-12T00:26:35;37.13;;;23.60;;
48578;SDS011;34357;51.948;6.132;2023-02-12T00:29:01;43.78;;;24.27;;
48578;SDS011;34357;51.948;6.132;2023-02-12T00:31:28;38.65;;;26.08;;
48578;SDS011;34357;51.948;6.132;2023-02-12T00:33:57;37.10;;;24.88;;
48578;SDS011;34357;51.948;6.132;2023-02-12T00:36:25;41.05;;;25.15;;
48578;SDS011;34357;51.948;6.132;2023-02-12T00:38:53;42.75;;;25.45;;
48578;SDS011;34357;51.948;6.132;2023-02-12T00:41:20;38.75;;;25.45;;
48578;SDS011;34357;51.948;6.132;2023-02-12T00:43:47;41.08;;;26.15;;
48578;SDS011;34357;51.948;6.132;2023-02-12T00:46:13;39.47;;;26.08;;
48578;SDS011;34357;51.948;6.132;2023-02-12T00:48:39;41.72;;;27.35;;
48578;SDS011;34357;51.948;6.132;2023-02-12T00:51:05;41.05;;;28.20;;
48578;SDS011;34357;51.948;6.132;2023-02-12T00:53:32;44.30;;;27.27;;
48578;SDS011;34357;51.948;6.132;2023-02-12T00:55:58;40.33;;;27.55;;
48578;SDS011;34357;51.948;6.132;2023-02-12T00:58:25;54.13;;;29.52;;
48578;SDS011;34357;51.948;6.132;2023-02-12T01:00:51;45.00;;;28.80;;
48578;SDS011;34357;51.948;6.132;2023-02-12T01:03:17;55.13;;;32.03;;
48578;SDS011;34357;51.948;6.132;2023-02-12T01:05:43;50.65;;;31.55;;
48578;SDS011;34357;51.948;6.132;2023-02-12T01:08:12;50.15;;;31.33;;
48578;SDS011;34357;51.948;6.132;2023-02-12T01:10:40;49.60;;;29.85;;
48578;SDS011;34357;51.948;6.132;2023-02-12T01:13:12;54.67;;;30.85;;
48578;SDS011;34357;51.948;6.132;2023-02-12T01:15:39;55.58;;;32.63;;
48578;SDS011;34357;51.948;6.132;2023-02-12T01:18:05;49.92;;;30.85;;
48578;SDS011;34357;51.948;6.132;2023-02-12T01:20:31;54.40;;;31.42;;
48578;SDS011;34357;51.948;6.132;2023-02-12T01:22:57;47.85;;;29.90;;
48578;SDS011;34357;51.948;6.132;2023-02-12T01:25:25;55.00;;;31.95;;
48578;SDS011;34357;51.948;6.132;2023-02-12T01:27:53;49.95;;;31.00;;
48578;SDS011;34357;51.948;6.132;2023-02-12T01:30:19;59.13;;;32.80;;
48578;SDS011;34357;51.948;6.132;2023-02-12T01:32:49;53.92;;;30.95;;
48578;SDS011;34357;51.948;6.132;2023-02-12T01:35:15;48.50;;;30.00;;
48578;SDS011;34357;51.948;6.132;2023-02-12T01:37:41;54.03;;;33.22;;
48578;SDS011;34357;51.948;6.132;2023-02-12T01:40:07;54.25;;;30.88;;
48578;SDS011;34357;51.948;6.132;2023-02-12T01:42:36;53.65;;;32.22;;
48578;SDS011;34357;51.948;6.132;2023-02-12T01:47:39;52.15;;;31.30;;
48578;SDS011;34357;51.948;6.132;2023-02-12T01:50:07;56.72;;;33.00;;
48578;SDS011;34357;51.948;6.132;2023-02-12T01:52:37;50.22;;;29.70;;
48578;SDS011;34357;51.948;6.132;2023-02-12T01:55:05;50.03;;;31.08;;
48578;SDS011;34357;51.948;6.132;2023-02-12T01:57:33;54.95;;;31.10;;
48578;SDS011;34357;51.948;6.132;2023-02-12T02:00:04;52.95;;;31.17;;
48578;SDS011;34357;51.948;6.132;2023-02-12T02:02:39;55.95;;;32.42;;
48578;SDS011;34357;51.948;6.132;2023-02-12T02:05:07;56.17;;;32.80;;
48578;SDS011;34357;51.948;6.132;2023-02-12T02:07:33;56.85;;;34.75;;
48578;SDS011;34357;51.948;6.132;2023-02-12T02:09:58;54.45;;;31.25;;
48578;SDS011;34357;51.948;6.132;2023-02-12T02:12:27;53.78;;;31.95;;
48578;SDS011;34357;51.948;6.132;2023-02-12T02:15:15;56.17;;;32.88;;
48578;SDS011;34357;51.948;6.132;2023-02-12T02:28:32;53.67;;;31.88;;
48578;SDS011;34357;51.948;6.132;2023-02-12T02:34:12;52.17;;;31.73;;
48578;SDS011;34357;51.948;6.132;2023-02-12T02:37:07;50.75;;;32.40;;
48578;SDS011;34357;51.948;6.132;2023-02-12T02:39:57;56.50;;;32.30;;
48578;SDS011;34357;51.948;6.132;2023-02-12T02:42:38;57.65;;;33.80;;
48578;SDS011;34357;51.948;6.132;2023-02-12T02:45:15;57.35;;;34.00;;
48578;SDS011;34357;51.948;6.132;2023-02-12T02:47:50;55.85;;;33.38;;
48578;SDS011;34357;51.948;6.132;2023-02-12T02:50:23;48.28;;;31.30;;
48578;SDS011;34357;51.948;6.132;2023-02-12T02:53:11;55.75;;;34.38;;
48578;SDS011;34357;51.948;6.132;2023-02-12T02:55:46;64.03;;;37.17;;
48578;SDS011;34357;51.948;6.132;2023-02-12T02:58:31;57.20;;;33.08;;
48578;SDS011;34357;51.948;6.132;2023-02-12T03:01:05;57.55;;;34.13;;
48578;SDS011;34357;51.948;6.132;2023-02-12T03:06:10;54.97;;;35.00;;
48578;SDS011;34357;51.948;6.132;2023-02-12T03:08:46;65.22;;;36.47;;
48578;SDS011;34357;51.948;6.132;2023-02-12T03:11:23;62.10;;;35.63;;
48578;SDS011;34357;51.948;6.132;2023-02-12T03:13:54;58.60;;;34.95;;
48578;SDS011;34357;51.948;6.132;2023-02-12T03:16:39;57.58;;;34.03;;
48578;SDS011;34357;51.948;6.132;2023-02-12T03:19:19;58.45;;;33.08;;
48578;SDS011;34357;51.948;6.132;2023-02-12T03:21:56;58.92;;;34.65;;
48578;SDS011;34357;51.948;6.132;2023-02-12T03:24:50;58.95;;;34.53;;
48578;SDS011;34357;51.948;6.132;2023-02-12T03:27:31;59.92;;;35.03;;
48578;SDS011;34357;51.948;6.132;2023-02-12T03:30:01;60.20;;;35.30;;
48578;SDS011;34357;51.948;6.132;2023-02-12T03:32:30;57.13;;;34.78;;
48578;SDS011;34357;51.948;6.132;2023-02-12T03:37:55;61.83;;;35.08;;
48578;SDS011;34357;51.948;6.132;2023-02-12T03:40:27;61.17;;;36.72;;
48578;SDS011;34357;51.948;6.132;2023-02-12T03:43:06;57.65;;;35.38;;
48578;SDS011;34357;51.948;6.132;2023-02-12T03:45:44;57.13;;;34.80;;
48578;SDS011;34357;51.948;6.132;2023-02-12T03:48:32;60.78;;;36.00;;
48578;SDS011;34357;51.948;6.132;2023-02-12T03:54:19;58.60;;;35.92;;
48578;SDS011;34357;51.948;6.132;2023-02-12T03:59:46;64.82;;;37.95;;
48578;SDS011;34357;51.948;6.132;2023-02-12T04:02:14;65.95;;;38.20;;
48578;SDS011;34357;51.948;6.132;2023-02-12T04:04:42;62.72;;;38.03;;
48578;SDS011;34357;51.948;6.132;2023-02-12T04:07:09;68.35;;;37.92;;
48578;SDS011;34357;51.948;6.132;2023-02-12T04:09:35;69.15;;;38.78;;
48578;SDS011;34357;51.948;6.132;2023-02-12T04:14:47;78.60;;;42.42;;
48578;SDS011;34357;51.948;6.132;2023-02-12T04:17:35;67.80;;;38.22;;
48578;SDS011;34357;51.948;6.132;2023-02-12T04:28:24;74.45;;;41.65;;
48578;SDS011;34357;51.948;6.132;2023-02-12T04:31:17;73.50;;;39.20;;
48578;SDS011;34357;51.948;6.132;2023-02-12T04:34:00;72.30;;;37.97;;
48578;SDS011;34357;51.948;6.132;2023-02-12T04:36:37;72.10;;;39.83;;
48578;SDS011;34357;51.948;6.132;2023-02-12T04:39:11;75.70;;;40.38;;
48578;SDS011;34357;51.948;6.132;2023-02-12T04:41:44;72.00;;;41.45;;
48578;SDS011;34357;51.948;6.132;2023-02-12T04:44:14;65.93;;;39.22;;
48578;SDS011;34357;51.948;6.132;2023-02-12T04:46:41;69.60;;;39.40;;
48578;SDS011;34357;51.948;6.132;2023-02-12T04:49:08;66.32;;;38.20;;
48578;SDS011;34357;51.948;6.132;2023-02-12T04:51:38;71.10;;;40.00;;
48578;SDS011;34357;51.948;6.132;2023-02-12T04:54:04;74.20;;;40.63;;
48578;SDS011;34357;51.948;6.132;2023-02-12T04:56:29;65.22;;;38.38;;
48578;SDS011;34357;51.948;6.132;2023-02-12T04:58:55;70.50;;;41.05;;
48578;SDS011;34357;51.948;6.132;2023-02-12T05:01:22;71.10;;;38.75;;
48578;SDS011;34357;51.948;6.132;2023-02-12T05:03:48;76.25;;;40.60;;
48578;SDS011;34357;51.948;6.132;2023-02-12T05:06:16;67.95;;;38.58;;
48578;SDS011;34357;51.948;6.132;2023-02-12T05:08:42;73.85;;;40.40;;
48578;SDS011;34357;51.948;6.132;2023-02-12T05:11:08;70.85;;;40.67;;
48578;SDS011;34357;51.948;6.132;2023-02-12T05:13:35;69.90;;;38.97;;
48578;SDS011;34357;51.948;6.132;2023-02-12T05:16:05;71.03;;;40.65;;
48578;SDS011;34357;51.948;6.132;2023-02-12T05:18:32;66.80;;;38.20;;
48578;SDS011;34357;51.948;6.132;2023-02-12T05:20:59;69.72;;;39.90;;
48578;SDS011;34357;51.948;6.132;2023-02-12T05:23:29;66.78;;;38.05;;
48578;SDS011;34357;51.948;6.132;2023-02-12T05:25:57;67.32;;;37.45;;
48578;SDS011;34357;51.948;6.132;2023-02-12T05:28:24;61.30;;;36.53;;
48578;SDS011;34357;51.948;6.132;2023-02-12T05:30:50;61.20;;;36.65;;
48578;SDS011;34357;51.948;6.132;2023-02-12T05:33:16;65.45;;;39.63;;
48578;SDS011;34357;51.948;6.132;2023-02-12T05:35:41;62.85;;;36.72;;
48578;SDS011;34357;51.948;6.132;2023-02-12T05:38:07;66.15;;;37.67;;
48578;SDS011;34357;51.948;6.132;2023-02-12T05:40:33;66.88;;;36.47;;
48578;SDS011;34357;51.948;6.132;2023-02-12T05:43:00;67.90;;;37.45;;
48578;SDS011;34357;51.948;6.132;2023-02-12T05:45:26;62.45;;;36.50;;
48578;SDS011;34357;51.948;6.132;2023-02-12T05:47:54;65.07;;;38.25;;
48578;SDS011;34357;51.948;6.132;2023-02-12T05:50:20;58.22;;;34.85;;
48578;SDS011;34357;51.948;6.132;2023-02-12T05:52:46;65.38;;;37.25;;
48578;SDS011;34357;51.948;6.132;2023-02-12T05:55:11;60.67;;;35.33;;
48578;SDS011;34357;51.948;6.132;2023-02-12T05:57:37;60.08;;;35.45;;
48578;SDS011;34357;51.948;6.132;2023-02-12T06:00:05;61.25;;;36.67;;
48578;SDS011;34357;51.948;6.132;2023-02-12T06:02:37;59.35;;;35.72;;
48578;SDS011;34357;51.948;6.132;2023-02-12T06:05:03;63.13;;;36.80;;
48578;SDS011;34357;51.948;6.132;2023-02-12T06:07:29;63.00;;;37.17;;
48578;SDS011;34357;51.948;6.132;2023-02-12T06:09:54;60.53;;;36.50;;
48578;SDS011;34357;51.948;6.132;2023-02-12T06:12:20;59.00;;;34.85;;
48578;SDS011;34357;51.948;6.132;2023-02-12T06:14:46;59.75;;;34.92;;
48578;SDS011;34357;51.948;6.132;2023-02-12T06:17:12;59.13;;;36.10;;
48578;SDS011;34357;51.948;6.132;2023-02-12T06:19:37;59.97;;;35.75;;
48578;SDS011;34357;51.948;6.132;2023-02-12T06:22:03;61.03;;;35.05;;
48578;SDS011;34357;51.948;6.132;2023-02-12T06:24:29;59.97;;;36.38;;
48578;SDS011;34357;51.948;6.132;2023-02-12T06:26:55;64.22;;;37.13;;
48578;SDS011;34357;51.948;6.132;2023-02-12T06:29:21;62.92;;;37.03;;
48578;SDS011;34357;51.948;6.132;2023-02-12T06:31:47;58.35;;;35.95;;
48578;SDS011;34357;51.948;6.132;2023-02-12T06:34:13;57.33;;;36.40;;
48578;SDS011;34357;51.948;6.132;2023-02-12T06:36:42;60.97;;;36.55;;
48578;SDS011;34357;51.948;6.132;2023-02-12T06:39:10;60.65;;;37.17;;
48578;SDS011;34357;51.948;6.132;2023-02-12T06:41:37;60.20;;;37.03;;
48578;SDS011;34357;51.948;6.132;2023-02-12T06:44:03;54.60;;;35.63;;
48578;SDS011;34357;51.948;6.132;2023-02-12T06:46:29;52.50;;;34.40;;
48578;SDS011;34357;51.948;6.132;2023-02-12T06:48:56;57.40;;;36.88;;
48578;SDS011;34357;51.948;6.132;2023-02-12T06:51:24;60.05;;;37.83;;
48578;SDS011;34357;51.948;6.132;2023-02-12T06:53:52;61.70;;;36.10;;
48578;SDS011;34357;51.948;6.132;2023-02-12T06:56:20;57.58;;;38.30;;
48578;SDS011;34357;51.948;6.132;2023-02-12T06:58:50;57.65;;;36.70;;
48578;SDS011;34357;51.948;6.132;2023-02-12T07:01:19;58.92;;;37.53;;
48578;SDS011;34357;51.948;6.132;2023-02-12T07:03:47;54.88;;;37.05;;
48578;SDS011;34357;51.948;6.132;2023-02-12T07:06:14;55.53;;;35.85;;
48578;SDS011;34357;51.948;6.132;2023-02-12T07:08:40;55.95;;;37.15;;
48578;SDS011;34357;51.948;6.132;2023-02-12T07:11:06;63.20;;;38.33;;
48578;SDS011;34357;51.948;6.132;2023-02-12T07:13:32;59.20;;;39.45;;
48578;SDS011;34357;51.948;6.132;2023-02-12T07:16:02;64.10;;;39.40;;
48578;SDS011;34357;51.948;6.132;2023-02-12T07:18:29;61.58;;;39.38;;
48578;SDS011;34357;51.948;6.132;2023-02-12T07:20:55;57.35;;;37.28;;
48578;SDS011;34357;51.948;6.132;2023-02-12T07:23:21;58.70;;;38.22;;
48578;SDS011;34357;51.948;6.132;2023-02-12T07:25:54;61.67;;;39.83;;
48578;SDS011;34357;51.948;6.132;2023-02-12T07:28:20;57.78;;;37.50;;
48578;SDS011;34357;51.948;6.132;2023-02-12T07:30:46;61.10;;;37.90;;
48578;SDS011;34357;51.948;6.132;2023-02-12T07:33:11;58.55;;;36.85;;
48578;SDS011;34357;51.948;6.132;2023-02-12T07:35:37;61.78;;;38.55;;
48578;SDS011;34357;51.948;6.132;2023-02-12T07:38:03;50.80;;;35.13;;
48578;SDS011;34357;51.948;6.132;2023-02-12T07:40:28;53.60;;;36.22;;
48578;SDS011;34357;51.948;6.132;2023-02-12T07:42:54;55.13;;;37.08;;
48578;SDS011;34357;51.948;6.132;2023-02-12T07:45:20;56.35;;;37.30;;
48578;SDS011;34357;51.948;6.132;2023-02-12T07:47:46;53.40;;;37.40;;
48578;SDS011;34357;51.948;6.132;2023-02-12T07:50:12;60.47;;;37.00;;
48578;SDS011;34357;51.948;6.132;2023-02-12T07:52:37;56.53;;;36.92;;
48578;SDS011;34357;51.948;6.132;2023-02-12T07:55:03;56.83;;;37.53;;
48578;SDS011;34357;51.948;6.132;2023-02-12T07:57:29;55.17;;;36.63;;
48578;SDS011;34357;51.948;6.132;2023-02-12T07:59:55;55.72;;;35.55;;
48578;SDS011;34357;51.948;6.132;2023-02-12T08:02:20;55.33;;;36.33;;
48578;SDS011;34357;51.948;6.132;2023-02-12T08:04:53;60.72;;;36.78;;
48578;SDS011;34357;51.948;6.132;2023-02-12T08:07:20;55.65;;;36.15;;
48578;SDS011;34357;51.948;6.132;2023-02-12T08:09:46;54.22;;;36.00;;
48578;SDS011;34357;51.948;6.132;2023-02-12T08:12:12;51.30;;;34.78;;
48578;SDS011;34357;51.948;6.132;2023-02-12T08:14:37;50.83;;;34.35;;
48578;SDS011;34357;51.948;6.132;2023-02-12T08:17:03;52.42;;;34.58;;
48578;SDS011;34357;51.948;6.132;2023-02-12T08:19:29;53.50;;;35.42;;
48578;SDS011;34357;51.948;6.132;2023-02-12T08:21:55;51.40;;;35.83;;
48578;SDS011;34357;51.948;6.132;2023-02-12T08:24:22;51.83;;;35.33;;
48578;SDS011;34357;51.948;6.132;2023-02-12T08:26:48;50.38;;;35.63;;
48578;SDS011;34357;51.948;6.132;2023-02-12T08:29:16;54.83;;;36.22;;
48578;SDS011;34357;51.948;6.132;2023-02-12T08:31:45;51.13;;;34.45;;
48578;SDS011;34357;51.948;6.132;2023-02-12T08:34:23;57.05;;;35.75;;
48578;SDS011;34357;51.948;6.132;2023-02-12T08:36:51;52.25;;;34.20;;
48578;SDS011;34357;51.948;6.132;2023-02-12T08:39:19;51.90;;;33.35;;
48578;SDS011;34357;51.948;6.132;2023-02-12T08:41:46;47.28;;;33.55;;
48578;SDS011;34357;51.948;6.132;2023-02-12T08:44:12;48.78;;;34.33;;
48578;SDS011;34357;51.948;6.132;2023-02-12T08:46:40;49.45;;;34.20;;
48578;SDS011;34357;51.948;6.132;2023-02-12T08:49:11;48.83;;;32.83;;
48578;SDS011;34357;51.948;6.132;2023-02-12T08:51:39;45.97;;;33.70;;
48578;SDS011;34357;51.948;6.132;2023-02-12T08:54:08;48.90;;;32.30;;
48578;SDS011;34357;51.948;6.132;2023-02-12T08:56:36;45.22;;;31.42;;
48578;SDS011;34357;51.948;6.132;2023-02-12T08:59:03;44.88;;;31.08;;
48578;SDS011;34357;51.948;6.132;2023-02-12T09:01:31;46.55;;;33.22;;
48578;SDS011;34357;51.948;6.132;2023-02-12T09:03:58;48.38;;;33.65;;
48578;SDS011;34357;51.948;6.132;2023-02-12T09:06:24;44.97;;;32.95;;
48578;SDS011;34357;51.948;6.132;2023-02-12T09:08:51;43.97;;;32.47;;
48578;SDS011;34357;51.948;6.132;2023-02-12T09:11:20;44.28;;;31.77;;
48578;SDS011;34357;51.948;6.132;2023-02-12T09:13:57;42.13;;;30.25;;
48578;SDS011;34357;51.948;6.132;2023-02-12T09:16:25;46.75;;;31.13;;
48578;SDS011;34357;51.948;6.132;2023-02-12T09:18:51;49.13;;;33.72;;
48578;SDS011;34357;51.948;6.132;2023-02-12T09:21:17;42.42;;;31.95;;
48578;SDS011;34357;51.948;6.132;2023-02-12T09:23:44;47.85;;;32.65;;
48578;SDS011;34357;51.948;6.132;2023-02-12T09:26:11;47.03;;;33.92;;
48578;SDS011;34357;51.948;6.132;2023-02-12T09:28:39;46.78;;;33.50;;
48578;SDS011;34357;51.948;6.132;2023-02-12T09:31:10;45.85;;;32.63;;
48578;SDS011;34357;51.948;6.132;2023-02-12T09:33:37;46.35;;;33.42;;
48578;SDS011;34357;51.948;6.132;2023-02-12T09:36:04;51.50;;;34.38;;
48578;SDS011;34357;51.948;6.132;2023-02-12T09:38:32;46.75;;;32.70;;
48578;SDS011;34357;51.948;6.132;2023-02-12T09:44:05;49.50;;;34.65;;
48578;SDS011;34357;51.948;6.132;2023-02-12T09:51:36;48.20;;;35.83;;
48578;SDS011;34357;51.948;6.132;2023-02-12T09:54:05;46.38;;;34.35;;
48578;SDS011;34357;51.948;6.132;2023-02-12T09:56:36;55.38;;;36.85;;
48578;SDS011;34357;51.948;6.132;2023-02-12T09:59:05;57.33;;;36.80;;
48578;SDS011;34357;51.948;6.132;2023-02-12T10:01:32;53.67;;;36.90;;
48578;SDS011;34357;51.948;6.132;2023-02-12T10:03:59;54.40;;;38.33;;
48578;SDS011;34357;51.948;6.132;2023-02-12T10:06:29;66.43;;;44.53;;
48578;SDS011;34357;51.948;6.132;2023-02-12T10:22:54;50.88;;;36.20;;
48578;SDS011;34357;51.948;6.132;2023-02-12T10:26:00;49.85;;;35.92;;
48578;SDS011;34357;51.948;6.132;2023-02-12T10:28:50;49.90;;;35.08;;
48578;SDS011;34357;51.948;6.132;2023-02-12T10:31:23;49.47;;;35.17;;
48578;SDS011;34357;51.948;6.132;2023-02-12T10:33:53;50.50;;;35.95;;
48578;SDS011;34357;51.948;6.132;2023-02-12T10:39:19;49.92;;;35.97;;
48578;SDS011;34357;51.948;6.132;2023-02-12T10:44:22;52.53;;;35.85;;
48578;SDS011;34357;51.948;6.132;2023-02-12T10:46:47;49.97;;;34.63;;
48578;SDS011;34357;51.948;6.132;2023-02-12T10:49:14;48.03;;;33.55;;
48578;SDS011;34357;51.948;6.132;2023-02-12T10:52:00;47.28;;;33.88;;
48578;SDS011;34357;51.948;6.132;2023-02-12T11:03:01;43.30;;;29.27;;
48578;SDS011;34357;51.948;6.132;2023-02-12T11:05:37;38.42;;;28.58;;
48578;SDS011;34357;51.948;6.132;2023-02-12T11:08:24;40.85;;;29.58;;
48578;SDS011;34357;51.948;6.132;2023-02-12T11:10:54;42.35;;;29.13;;
48578;SDS011;34357;51.948;6.132;2023-02-12T11:13:28;36.08;;;26.20;;
48578;SDS011;34357;51.948;6.132;2023-02-12T11:15:54;38.42;;;26.30;;
48578;SDS011;34357;51.948;6.132;2023-02-12T11:18:24;39.80;;;26.42;;
48578;SDS011;34357;51.948;6.132;2023-02-12T11:20:55;40.53;;;26.73;;
48578;SDS011;34357;51.948;6.132;2023-02-12T11:23:36;36.80;;;26.00;;
48578;SDS011;34357;51.948;6.132;2023-02-12T11:28:54;36.20;;;26.13;;
48578;SDS011;34357;51.948;6.132;2023-02-12T11:36:43;28.70;;;21.70;;
48578;SDS011;34357;51.948;6.132;2023-02-12T11:42:16;28.88;;;21.23;;
48578;SDS011;34357;51.948;6.132;2023-02-12T11:44:48;31.42;;;20.20;;
48578;SDS011;34357;51.948;6.132;2023-02-12T11:47:26;26.08;;;18.45;;
48578;SDS011;34357;51.948;6.132;2023-02-12T11:49:55;27.20;;;19.48;;
48578;SDS011;34357;51.948;6.132;2023-02-12T11:52:32;26.85;;;18.92;;
48578;SDS011;34357;51.948;6.132;2023-02-12T11:55:05;27.30;;;19.33;;
48578;SDS011;34357;51.948;6.132;2023-02-12T11:57:47;28.00;;;18.92;;
48578;SDS011;34357;51.948;6.132;2023-02-12T12:00:16;30.48;;;22.15;;
48578;SDS011;34357;51.948;6.132;2023-02-12T12:03:13;34.90;;;21.30;;
48578;SDS011;34357;51.948;6.132;2023-02-12T12:05:47;37.22;;;22.73;;
48578;SDS011;34357;51.948;6.132;2023-02-12T12:08:26;33.25;;;22.63;;
48578;SDS011;34357;51.948;6.132;2023-02-12T12:10:59;35.65;;;23.13;;
48578;SDS011;34357;51.948;6.132;2023-02-12T12:13:54;32.58;;;22.38;;
48578;SDS011;34357;51.948;6.132;2023-02-12T12:16:58;38.47;;;24.13;;
48578;SDS011;34357;51.948;6.132;2023-02-12T12:24:59;39.17;;;25.05;;
48578;SDS011;34357;51.948;6.132;2023-02-12T12:27:59;35.47;;;24.35;;
48578;SDS011;34357;51.948;6.132;2023-02-12T12:30:50;38.70;;;24.38;;
48578;SDS011;34357;51.948;6.132;2023-02-12T12:46:31;37.05;;;24.00;;
48578;SDS011;34357;51.948;6.132;2023-02-12T13:10:56;39.75;;;26.15;;
48578;SDS011;34357;51.948;6.132;2023-02-12T13:13:47;39.58;;;26.13;;
48578;SDS011;34357;51.948;6.132;2023-02-12T13:16:20;39.00;;;25.58;;
48578;SDS011;34357;51.948;6.132;2023-02-12T13:24:11;39.15;;;25.30;;
48578;SDS011;34357;51.948;6.132;2023-02-12T13:27:12;35.53;;;24.55;;
48578;SDS011;34357;51.948;6.132;2023-02-12T13:29:52;40.38;;;25.27;;
48578;SDS011;34357;51.948;6.132;2023-02-12T13:32:28;36.83;;;24.50;;
48578;SDS011;34357;51.948;6.132;2023-02-12T13:35:17;37.47;;;25.08;;
48578;SDS011;34357;51.948;6.132;2023-02-12T13:37:45;43.30;;;26.38;;
48578;SDS011;34357;51.948;6.132;2023-02-12T13:40:16;40.58;;;26.20;;
48578;SDS011;34357;51.948;6.132;2023-02-12T13:42:49;44.75;;;25.92;;
48578;SDS011;34357;51.948;6.132;2023-02-12T13:50:44;44.95;;;26.45;;
48578;SDS011;34357;51.948;6.132;2023-02-12T14:01:07;40.70;;;26.83;;
48578;SDS011;34357;51.948;6.132;2023-02-12T14:03:35;37.95;;;25.42;;
48578;SDS011;34357;51.948;6.132;2023-02-12T14:06:15;41.55;;;27.80;;
48578;SDS011;34357;51.948;6.132;2023-02-12T14:08:49;41.80;;;26.55;;
48578;SDS011;34357;51.948;6.132;2023-02-12T14:11:19;40.53;;;25.20;;
48578;SDS011;34357;51.948;6.132;2023-02-12T14:13:56;41.42;;;26.38;;
48578;SDS011;34357;51.948;6.132;2023-02-12T14:21:56;39.40;;;25.20;;
48578;SDS011;34357;51.948;6.132;2023-02-12T14:27:04;43.17;;;26.80;;
48578;SDS011;34357;51.948;6.132;2023-02-12T14:29:51;43.08;;;27.58;;
48578;SDS011;34357;51.948;6.132;2023-02-12T14:37:58;43.17;;;26.92;;
48578;SDS011;34357;51.948;6.132;2023-02-12T14:40:29;45.67;;;27.40;;
48578;SDS011;34357;51.948;6.132;2023-02-12T14:42:59;46.70;;;26.83;;
48578;SDS011;34357;51.948;6.132;2023-02-12T14:45:44;41.95;;;27.00;;
48578;SDS011;34357;51.948;6.132;2023-02-12T14:48:09;42.72;;;26.70;;
48578;SDS011;34357;51.948;6.132;2023-02-12T14:51:35;43.92;;;27.67;;
48578;SDS011;34357;51.948;6.132;2023-02-12T14:54:12;42.92;;;27.17;;
48578;SDS011;34357;51.948;6.132;2023-02-12T14:56:46;40.00;;;25.77;;
48578;SDS011;34357;51.948;6.132;2023-02-12T14:59:21;45.83;;;27.08;;
48578;SDS011;34357;51.948;6.132;2023-02-12T15:01:49;40.45;;;26.10;;
48578;SDS011;34357;51.948;6.132;2023-02-12T15:04:19;45.33;;;27.42;;
48578;SDS011;34357;51.948;6.132;2023-02-12T15:06:56;44.58;;;27.48;;
48578;SDS011;34357;51.948;6.132;2023-02-12T15:12:21;43.17;;;26.25;;
48578;SDS011;34357;51.948;6.132;2023-02-12T15:18:06;43.22;;;27.23;;
48578;SDS011;34357;51.948;6.132;2023-02-12T15:23:39;40.40;;;26.10;;
48578;SDS011;34357;51.948;6.132;2023-02-12T15:26:13;40.30;;;27.20;;
48578;SDS011;34357;51.948;6.132;2023-02-12T15:28:42;42.47;;;25.20;;
48578;SDS011;34357;51.948;6.132;2023-02-12T15:31:13;45.88;;;27.00;;
48578;SDS011;34357;51.948;6.132;2023-02-12T15:33:43;40.85;;;26.67;;
48578;SDS011;34357;51.948;6.132;2023-02-12T15:36:15;39.67;;;25.73;;
48578;SDS011;34357;51.948;6.132;2023-02-12T15:38:44;41.15;;;26.17;;
48578;SDS011;34357;51.948;6.132;2023-02-12T15:49:41;42.00;;;25.83;;
48578;SDS011;34357;51.948;6.132;2023-02-12T15:52:09;43.90;;;28.23;;
48578;SDS011;34357;51.948;6.132;2023-02-12T15:54:40;39.65;;;25.25;;
48578;SDS011;34357;51.948;6.132;2023-02-12T15:57:08;42.65;;;27.55;;
48578;SDS011;34357;51.948;6.132;2023-02-12T15:59:35;43.25;;;26.40;;
48578;SDS011;34357;51.948;6.132;2023-02-12T16:02:01;42.10;;;26.48;;
48578;SDS011;34357;51.948;6.132;2023-02-12T16:04:29;43.15;;;26.40;;
48578;SDS011;34357;51.948;6.132;2023-02-12T16:06:57;42.53;;;27.17;;
48578;SDS011;34357;51.948;6.132;2023-02-12T16:09:26;40.50;;;26.05;;
48578;SDS011;34357;51.948;6.132;2023-02-12T16:11:59;42.50;;;26.55;;
48578;SDS011;34357;51.948;6.132;2023-02-12T16:14:30;41.45;;;26.05;;
48578;SDS011;34357;51.948;6.132;2023-02-12T16:17:16;46.75;;;29.27;;
48578;SDS011;34357;51.948;6.132;2023-02-12T16:19:51;48.80;;;30.15;;
48578;SDS011;34357;51.948;6.132;2023-02-12T16:22:18;46.45;;;28.88;;
48578;SDS011;34357;51.948;6.132;2023-02-12T16:24:50;45.38;;;27.88;;
48578;SDS011;34357;51.948;6.132;2023-02-12T16:27:19;45.20;;;29.48;;
48578;SDS011;34357;51.948;6.132;2023-02-12T16:29:51;46.13;;;28.90;;
48578;SDS011;34357;51.948;6.132;2023-02-12T16:32:31;44.30;;;27.65;;
48578;SDS011;34357;51.948;6.132;2023-02-12T16:42:59;49.42;;;29.08;;
48578;SDS011;34357;51.948;6.132;2023-02-12T16:45:32;49.05;;;29.75;;
48578;SDS011;34357;51.948;6.132;2023-02-12T16:48:00;52.83;;;33.30;;
48578;SDS011;34357;51.948;6.132;2023-02-12T16:50:49;56.03;;;34.33;;
48578;SDS011;34357;51.948;6.132;2023-02-12T16:55:54;77.60;;;43.50;;
48578;SDS011;34357;51.948;6.132;2023-02-12T16:58:20;71.78;;;42.50;;
48578;SDS011;34357;51.948;6.132;2023-02-12T17:00:46;70.75;;;41.22;;
48578;SDS011;34357;51.948;6.132;2023-02-12T17:03:13;67.38;;;38.75;;
48578;SDS011;34357;51.948;6.132;2023-02-12T17:05:41;64.90;;;39.83;;
48578;SDS011;34357;51.948;6.132;2023-02-12T17:08:12;62.05;;;38.33;;
48578;SDS011;34357;51.948;6.132;2023-02-12T17:10:44;58.28;;;34.15;;
48578;SDS011;34357;51.948;6.132;2023-02-12T17:13:10;58.63;;;33.47;;
48578;SDS011;34357;51.948;6.132;2023-02-12T17:15:37;54.42;;;31.60;;
48578;SDS011;34357;51.948;6.132;2023-02-12T17:18:07;53.78;;;31.08;;
48578;SDS011;34357;51.948;6.132;2023-02-12T17:20:35;51.88;;;30.45;;
48578;SDS011;34357;51.948;6.132;2023-02-12T17:23:02;52.45;;;30.65;;
48578;SDS011;34357;51.948;6.132;2023-02-12T17:25:29;57.80;;;31.63;;
48578;SDS011;34357;51.948;6.132;2023-02-12T17:27:55;51.30;;;31.58;;
48578;SDS011;34357;51.948;6.132;2023-02-12T17:30:21;56.80;;;32.22;;
48578;SDS011;34357;51.948;6.132;2023-02-12T17:32:48;54.28;;;31.95;;
48578;SDS011;34357;51.948;6.132;2023-02-12T17:35:14;50.60;;;30.98;;
48578;SDS011;34357;51.948;6.132;2023-02-12T17:37:40;52.65;;;32.50;;
48578;SDS011;34357;51.948;6.132;2023-02-12T17:40:06;51.65;;;30.60;;
48578;SDS011;34357;51.948;6.132;2023-02-12T17:42:35;55.10;;;33.75;;
48578;SDS011;34357;51.948;6.132;2023-02-12T17:45:01;58.78;;;33.47;;
48578;SDS011;34357;51.948;6.132;2023-02-12T17:47:27;50.72;;;31.75;;
48578;SDS011;34357;51.948;6.132;2023-02-12T17:49:53;53.63;;;33.25;;